sensor_id;sensor_type;location;lat;lon;timestamp;P1;durP1;ratioP1;P2;durP2;ratioP2
54641;SDS011;40536;53.194;5.728;2023-07-31T00:00:12;127.95;;;122.28;;
54641;SDS011;40536;53.194;5.728;2023-07-31T00:02:38;183.43;;;174.70;;
54641;SDS011;40536;53.194;5.728;2023-07-31T00:05:04;193.45;;;184.32;;
54641;SDS011;40536;53.194;5.728;2023-07-31T00:07:31;175.45;;;167.57;;
54641;SDS011;40536;53.194;5.728;2023-07-31T00:09:57;162.02;;;154.57;;
54641;SDS011;40536;53.194;5.728;2023-07-31T00:12:24;157.82;;;150.80;;
54641;SDS011;40536;53.194;5.728;2023-07-31T00:14:49;139.45;;;132.88;;
54641;SDS011;40536;53.194;5.728;2023-07-31T00:17:16;152.77;;;145.65;;
54641;SDS011;40536;53.194;5.728;2023-07-31T00:19:42;149.77;;;142.88;;
54641;SDS011;40536;53.194;5.728;2023-07-31T00:22:07;235.52;;;224.68;;
54641;SDS011;40536;53.194;5.728;2023-07-31T00:24:33;206.68;;;197.20;;
54641;SDS011;40536;53.194;5.728;2023-07-31T00:26:59;248.30;;;236.75;;
54641;SDS011;40536;53.194;5.728;2023-07-31T00:29:24;197.82;;;189.25;;
54641;SDS011;40536;53.194;5.728;2023-07-31T00:31:50;264.25;;;252.10;;
54641;SDS011;40536;53.194;5.728;2023-07-31T00:34:15;295.65;;;281.88;;
54641;SDS011;40536;53.194;5.728;2023-07-31T00:36:41;305.27;;;291.70;;
54641;SDS011;40536;53.194;5.728;2023-07-31T00:39:07;297.50;;;284.00;;
54641;SDS011;40536;53.194;5.728;2023-07-31T00:41:32;276.55;;;263.73;;
54641;SDS011;40536;53.194;5.728;2023-07-31T00:43:58;235.65;;;225.13;;
54641;SDS011;40536;53.194;5.728;2023-07-31T00:46:23;249.70;;;238.73;;
54641;SDS011;40536;53.194;5.728;2023-07-31T00:48:49;320.88;;;305.73;;
54641;SDS011;40536;53.194;5.728;2023-07-31T00:51:15;257.23;;;245.40;;
54641;SDS011;40536;53.194;5.728;2023-07-31T00:53:41;282.38;;;269.33;;
54641;SDS011;40536;53.194;5.728;2023-07-31T00:56:08;249.15;;;238.10;;
54641;SDS011;40536;53.194;5.728;2023-07-31T00:58:36;331.20;;;315.67;;
54641;SDS011;40536;53.194;5.728;2023-07-31T01:01:01;260.45;;;248.90;;
54641;SDS011;40536;53.194;5.728;2023-07-31T01:03:27;223.05;;;213.35;;
54641;SDS011;40536;53.194;5.728;2023-07-31T01:14:03;130.93;;;125.07;;
54641;SDS011;40536;53.194;5.728;2023-07-31T01:16:29;156.98;;;150.02;;
54641;SDS011;40536;53.194;5.728;2023-07-31T01:18:55;160.18;;;152.50;;
54641;SDS011;40536;53.194;5.728;2023-07-31T01:24:17;223.40;;;213.27;;
54641;SDS011;40536;53.194;5.728;2023-07-31T01:27:21;192.05;;;183.30;;
54641;SDS011;40536;53.194;5.728;2023-07-31T01:29:43;200.93;;;191.90;;
54641;SDS011;40536;53.194;5.728;2023-07-31T01:32:10;264.58;;;252.05;;
54641;SDS011;40536;53.194;5.728;2023-07-31T01:34:37;196.18;;;187.18;;
54641;SDS011;40536;53.194;5.728;2023-07-31T01:37:03;171.32;;;163.40;;
54641;SDS011;40536;53.194;5.728;2023-07-31T01:39:29;199.75;;;190.35;;
54641;SDS011;40536;53.194;5.728;2023-07-31T01:41:55;156.60;;;149.43;;
54641;SDS011;40536;53.194;5.728;2023-07-31T01:44:20;153.13;;;146.15;;
54641;SDS011;40536;53.194;5.728;2023-07-31T01:46:46;120.40;;;114.78;;
54641;SDS011;40536;53.194;5.728;2023-07-31T01:49:12;126.25;;;120.18;;
54641;SDS011;40536;53.194;5.728;2023-07-31T01:51:37;116.20;;;111.03;;
54641;SDS011;40536;53.194;5.728;2023-07-31T01:54:03;119.15;;;113.43;;
54641;SDS011;40536;53.194;5.728;2023-07-31T01:56:29;99.57;;;94.93;;
54641;SDS011;40536;53.194;5.728;2023-07-31T01:58:54;96.60;;;91.80;;
54641;SDS011;40536;53.194;5.728;2023-07-31T02:01:20;148.10;;;141.57;;
54641;SDS011;40536;53.194;5.728;2023-07-31T02:03:46;141.07;;;134.77;;
54641;SDS011;40536;53.194;5.728;2023-07-31T02:06:11;173.63;;;165.55;;
54641;SDS011;40536;53.194;5.728;2023-07-31T02:08:37;196.00;;;186.90;;
54641;SDS011;40536;53.194;5.728;2023-07-31T02:11:04;170.02;;;162.35;;
54641;SDS011;40536;53.194;5.728;2023-07-31T02:13:29;187.07;;;178.77;;
54641;SDS011;40536;53.194;5.728;2023-07-31T02:15:55;156.77;;;149.63;;
54641;SDS011;40536;53.194;5.728;2023-07-31T02:18:21;166.85;;;159.60;;
54641;SDS011;40536;53.194;5.728;2023-07-31T02:20:50;141.25;;;134.75;;
54641;SDS011;40536;53.194;5.728;2023-07-31T02:23:16;185.82;;;177.15;;
54641;SDS011;40536;53.194;5.728;2023-07-31T02:25:43;209.20;;;200.25;;
54641;SDS011;40536;53.194;5.728;2023-07-31T02:28:09;228.65;;;218.55;;
54641;SDS011;40536;53.194;5.728;2023-07-31T02:30:35;268.45;;;256.65;;
54641;SDS011;40536;53.194;5.728;2023-07-31T02:33:00;213.75;;;204.52;;
54641;SDS011;40536;53.194;5.728;2023-07-31T02:35:26;267.58;;;255.38;;
54641;SDS011;40536;53.194;5.728;2023-07-31T02:37:51;352.40;;;335.67;;
54641;SDS011;40536;53.194;5.728;2023-07-31T02:40:17;311.73;;;297.40;;
54641;SDS011;40536;53.194;5.728;2023-07-31T02:42:43;301.35;;;287.75;;
54641;SDS011;40536;53.194;5.728;2023-07-31T02:45:08;401.75;;;382.65;;
54641;SDS011;40536;53.194;5.728;2023-07-31T02:47:34;354.10;;;337.23;;
54641;SDS011;40536;53.194;5.728;2023-07-31T02:50:00;300.10;;;286.35;;
54641;SDS011;40536;53.194;5.728;2023-07-31T02:52:29;285.20;;;272.08;;
54641;SDS011;40536;53.194;5.728;2023-07-31T02:54:55;200.25;;;191.55;;
54641;SDS011;40536;53.194;5.728;2023-07-31T02:57:21;195.32;;;186.52;;
54641;SDS011;40536;53.194;5.728;2023-07-31T02:59:47;222.23;;;212.40;;
54641;SDS011;40536;53.194;5.728;2023-07-31T03:02:13;251.52;;;240.40;;
54641;SDS011;40536;53.194;5.728;2023-07-31T03:04:39;245.02;;;233.48;;
54641;SDS011;40536;53.194;5.728;2023-07-31T03:07:05;315.08;;;300.88;;
54641;SDS011;40536;53.194;5.728;2023-07-31T03:09:30;302.50;;;288.90;;
54641;SDS011;40536;53.194;5.728;2023-07-31T03:11:56;293.63;;;280.13;;
54641;SDS011;40536;53.194;5.728;2023-07-31T03:14:22;260.65;;;249.38;;
54641;SDS011;40536;53.194;5.728;2023-07-31T03:16:48;255.50;;;244.38;;
54641;SDS011;40536;53.194;5.728;2023-07-31T03:19:13;254.95;;;243.85;;
54641;SDS011;40536;53.194;5.728;2023-07-31T03:21:39;271.13;;;258.77;;
54641;SDS011;40536;53.194;5.728;2023-07-31T03:24:05;391.30;;;372.25;;
54641;SDS011;40536;53.194;5.728;2023-07-31T03:26:31;370.00;;;352.85;;
54641;SDS011;40536;53.194;5.728;2023-07-31T03:28:57;334.67;;;319.55;;
54641;SDS011;40536;53.194;5.728;2023-07-31T03:31:23;306.80;;;292.90;;
54641;SDS011;40536;53.194;5.728;2023-07-31T03:33:48;306.92;;;293.35;;
54641;SDS011;40536;53.194;5.728;2023-07-31T03:36:14;335.75;;;320.45;;
54641;SDS011;40536;53.194;5.728;2023-07-31T03:38:39;290.10;;;277.27;;
54641;SDS011;40536;53.194;5.728;2023-07-31T03:41:05;240.07;;;229.93;;
54641;SDS011;40536;53.194;5.728;2023-07-31T03:43:31;273.58;;;261.58;;
54641;SDS011;40536;53.194;5.728;2023-07-31T03:45:59;272.73;;;260.88;;
54641;SDS011;40536;53.194;5.728;2023-07-31T03:48:25;350.55;;;334.42;;
54641;SDS011;40536;53.194;5.728;2023-07-31T03:50:51;237.30;;;227.13;;
54641;SDS011;40536;53.194;5.728;2023-07-31T03:53:16;239.32;;;229.10;;
54641;SDS011;40536;53.194;5.728;2023-07-31T03:55:42;325.88;;;310.58;;
54641;SDS011;40536;53.194;5.728;2023-07-31T03:58:07;304.08;;;289.95;;
54641;SDS011;40536;53.194;5.728;2023-07-31T04:00:33;377.90;;;359.05;;
54641;SDS011;40536;53.194;5.728;2023-07-31T04:02:59;401.73;;;381.35;;
54641;SDS011;40536;53.194;5.728;2023-07-31T04:05:24;361.08;;;342.83;;
54641;SDS011;40536;53.194;5.728;2023-07-31T04:07:50;478.58;;;452.88;;
54641;SDS011;40536;53.194;5.728;2023-07-31T04:10:17;658.78;;;617.13;;
54641;SDS011;40536;53.194;5.728;2023-07-31T04:12:42;615.88;;;577.88;;
54641;SDS011;40536;53.194;5.728;2023-07-31T04:15:08;693.63;;;648.40;;
54641;SDS011;40536;53.194;5.728;2023-07-31T04:17:34;749.97;;;703.47;;
54641;SDS011;40536;53.194;5.728;2023-07-31T04:20:00;718.85;;;672.45;;
54641;SDS011;40536;53.194;5.728;2023-07-31T04:22:25;685.33;;;642.20;;
54641;SDS011;40536;53.194;5.728;2023-07-31T04:24:51;706.03;;;660.03;;
54641;SDS011;40536;53.194;5.728;2023-07-31T04:27:17;660.53;;;619.67;;
54641;SDS011;40536;53.194;5.728;2023-07-31T04:29:42;818.75;;;749.75;;
54641;SDS011;40536;53.194;5.728;2023-07-31T04:32:10;671.22;;;630.30;;
54641;SDS011;40536;53.194;5.728;2023-07-31T04:34:36;611.03;;;575.50;;
54641;SDS011;40536;53.194;5.728;2023-07-31T04:37:02;557.30;;;526.42;;
54641;SDS011;40536;53.194;5.728;2023-07-31T04:39:28;553.97;;;522.72;;
54641;SDS011;40536;53.194;5.728;2023-07-31T04:41:53;585.00;;;550.50;;
54641;SDS011;40536;53.194;5.728;2023-07-31T04:44:19;614.17;;;578.42;;
54641;SDS011;40536;53.194;5.728;2023-07-31T04:46:45;556.28;;;524.42;;
54641;SDS011;40536;53.194;5.728;2023-07-31T04:49:11;536.20;;;506.05;;
54641;SDS011;40536;53.194;5.728;2023-07-31T04:51:37;554.58;;;522.58;;
54641;SDS011;40536;53.194;5.728;2023-07-31T04:54:02;497.83;;;470.63;;
54641;SDS011;40536;53.194;5.728;2023-07-31T04:56:28;485.92;;;460.48;;
54641;SDS011;40536;53.194;5.728;2023-07-31T04:58:54;514.13;;;485.30;;
54641;SDS011;40536;53.194;5.728;2023-07-31T05:01:20;527.70;;;497.83;;
54641;SDS011;40536;53.194;5.728;2023-07-31T05:03:45;495.55;;;467.98;;
54641;SDS011;40536;53.194;5.728;2023-07-31T05:06:11;479.85;;;453.02;;
54641;SDS011;40536;53.194;5.728;2023-07-31T05:08:38;475.08;;;448.75;;
54641;SDS011;40536;53.194;5.728;2023-07-31T05:11:04;630.05;;;591.97;;
54641;SDS011;40536;53.194;5.728;2023-07-31T05:13:30;680.58;;;639.17;;
54641;SDS011;40536;53.194;5.728;2023-07-31T05:15:55;645.17;;;606.75;;
54641;SDS011;40536;53.194;5.728;2023-07-31T05:18:21;605.05;;;568.40;;
54641;SDS011;40536;53.194;5.728;2023-07-31T05:20:46;649.33;;;608.90;;
54641;SDS011;40536;53.194;5.728;2023-07-31T05:23:12;735.92;;;684.47;;
54641;SDS011;40536;53.194;5.728;2023-07-31T05:25:38;677.40;;;633.65;;
54641;SDS011;40536;53.194;5.728;2023-07-31T05:28:03;672.20;;;629.25;;
54641;SDS011;40536;53.194;5.728;2023-07-31T05:30:29;620.28;;;582.25;;
54641;SDS011;40536;53.194;5.728;2023-07-31T05:32:56;606.67;;;569.15;;
54641;SDS011;40536;53.194;5.728;2023-07-31T05:35:21;584.60;;;549.83;;
54641;SDS011;40536;53.194;5.728;2023-07-31T05:37:47;548.08;;;516.72;;
54641;SDS011;40536;53.194;5.728;2023-07-31T05:40:13;465.20;;;439.10;;
54641;SDS011;40536;53.194;5.728;2023-07-31T05:42:39;492.30;;;464.63;;
54641;SDS011;40536;53.194;5.728;2023-07-31T05:45:06;588.78;;;553.72;;
54641;SDS011;40536;53.194;5.728;2023-07-31T05:47:32;602.65;;;566.40;;
54641;SDS011;40536;53.194;5.728;2023-07-31T05:49:58;381.83;;;362.60;;
54641;SDS011;40536;53.194;5.728;2023-07-31T05:52:24;400.00;;;379.85;;
54641;SDS011;40536;53.194;5.728;2023-07-31T05:54:49;556.70;;;524.83;;
54641;SDS011;40536;53.194;5.728;2023-07-31T05:57:15;454.08;;;430.65;;
54641;SDS011;40536;53.194;5.728;2023-07-31T05:59:41;379.27;;;360.45;;
54641;SDS011;40536;53.194;5.728;2023-07-31T06:02:07;474.77;;;449.00;;
54641;SDS011;40536;53.194;5.728;2023-07-31T06:04:32;488.35;;;461.80;;
54641;SDS011;40536;53.194;5.728;2023-07-31T06:06:58;429.48;;;407.67;;
54641;SDS011;40536;53.194;5.728;2023-07-31T06:09:24;391.60;;;372.48;;
54641;SDS011;40536;53.194;5.728;2023-07-31T06:11:51;444.35;;;421.83;;
54641;SDS011;40536;53.194;5.728;2023-07-31T06:14:17;438.90;;;416.80;;
54641;SDS011;40536;53.194;5.728;2023-07-31T06:16:43;509.23;;;480.95;;
54641;SDS011;40536;53.194;5.728;2023-07-31T06:19:09;477.52;;;452.17;;
54641;SDS011;40536;53.194;5.728;2023-07-31T06:21:35;534.97;;;505.00;;
54641;SDS011;40536;53.194;5.728;2023-07-31T06:24:02;481.63;;;456.42;;
54641;SDS011;40536;53.194;5.728;2023-07-31T06:26:29;497.63;;;471.33;;
54641;SDS011;40536;53.194;5.728;2023-07-31T06:28:54;423.83;;;401.77;;
54641;SDS011;40536;53.194;5.728;2023-07-31T06:31:20;427.83;;;405.80;;
54641;SDS011;40536;53.194;5.728;2023-07-31T06:33:48;436.20;;;413.60;;
54641;SDS011;40536;53.194;5.728;2023-07-31T06:36:14;364.63;;;345.98;;
54641;SDS011;40536;53.194;5.728;2023-07-31T06:38:40;361.33;;;342.92;;
54641;SDS011;40536;53.194;5.728;2023-07-31T06:41:06;481.13;;;454.08;;
54641;SDS011;40536;53.194;5.728;2023-07-31T06:43:31;446.25;;;422.63;;
54641;SDS011;40536;53.194;5.728;2023-07-31T06:45:57;452.38;;;428.45;;
54641;SDS011;40536;53.194;5.728;2023-07-31T06:48:23;359.63;;;341.27;;
54641;SDS011;40536;53.194;5.728;2023-07-31T06:50:48;454.63;;;430.42;;
54641;SDS011;40536;53.194;5.728;2023-07-31T06:53:14;489.98;;;463.85;;
54641;SDS011;40536;53.194;5.728;2023-07-31T06:55:40;397.92;;;378.35;;
54641;SDS011;40536;53.194;5.728;2023-07-31T06:58:05;582.03;;;548.67;;
54641;SDS011;40536;53.194;5.728;2023-07-31T07:00:31;592.10;;;558.65;;
54641;SDS011;40536;53.194;5.728;2023-07-31T07:02:57;536.20;;;507.58;;
54641;SDS011;40536;53.194;5.728;2023-07-31T07:05:23;546.58;;;516.83;;
54641;SDS011;40536;53.194;5.728;2023-07-31T07:07:49;535.38;;;506.58;;
54641;SDS011;40536;53.194;5.728;2023-07-31T07:10:17;511.10;;;484.13;;
54641;SDS011;40536;53.194;5.728;2023-07-31T07:12:42;387.05;;;368.15;;
54641;SDS011;40536;53.194;5.728;2023-07-31T07:15:08;451.48;;;427.90;;
54641;SDS011;40536;53.194;5.728;2023-07-31T07:17:34;361.27;;;343.60;;
54641;SDS011;40536;53.194;5.728;2023-07-31T07:20:00;338.38;;;321.45;;
54641;SDS011;40536;53.194;5.728;2023-07-31T07:22:26;307.30;;;293.55;;
54641;SDS011;40536;53.194;5.728;2023-07-31T07:24:52;345.40;;;328.92;;
54641;SDS011;40536;53.194;5.728;2023-07-31T07:27:18;382.08;;;363.80;;
54641;SDS011;40536;53.194;5.728;2023-07-31T07:29:45;333.95;;;318.45;;
54641;SDS011;40536;53.194;5.728;2023-07-31T07:32:11;427.67;;;406.40;;
54641;SDS011;40536;53.194;5.728;2023-07-31T07:34:37;366.20;;;348.23;;
54641;SDS011;40536;53.194;5.728;2023-07-31T07:37:03;316.90;;;302.58;;
54641;SDS011;40536;53.194;5.728;2023-07-31T07:39:28;292.58;;;279.25;;
54641;SDS011;40536;53.194;5.728;2023-07-31T07:41:54;384.25;;;366.05;;
54641;SDS011;40536;53.194;5.728;2023-07-31T07:44:20;401.42;;;381.83;;
54641;SDS011;40536;53.194;5.728;2023-07-31T07:46:45;419.92;;;399.73;;
54641;SDS011;40536;53.194;5.728;2023-07-31T07:49:11;523.25;;;492.75;;
54641;SDS011;40536;53.194;5.728;2023-07-31T07:51:36;371.88;;;354.30;;
54641;SDS011;40536;53.194;5.728;2023-07-31T07:54:02;368.15;;;350.92;;
54641;SDS011;40536;53.194;5.728;2023-07-31T07:56:28;449.05;;;426.48;;
54641;SDS011;40536;53.194;5.728;2023-07-31T07:58:54;389.80;;;370.33;;
54641;SDS011;40536;53.194;5.728;2023-07-31T08:01:20;228.38;;;218.48;;
54641;SDS011;40536;53.194;5.728;2023-07-31T08:03:49;208.25;;;199.05;;
54641;SDS011;40536;53.194;5.728;2023-07-31T08:06:15;188.27;;;179.95;;
54641;SDS011;40536;53.194;5.728;2023-07-31T08:08:41;383.70;;;365.13;;
54641;SDS011;40536;53.194;5.728;2023-07-31T08:11:07;361.63;;;344.40;;
54641;SDS011;40536;53.194;5.728;2023-07-31T08:13:33;312.73;;;298.25;;
54641;SDS011;40536;53.194;5.728;2023-07-31T08:15:58;243.85;;;233.07;;
54641;SDS011;40536;53.194;5.728;2023-07-31T08:18:24;326.98;;;311.73;;
54641;SDS011;40536;53.194;5.728;2023-07-31T08:20:50;241.20;;;229.35;;
54641;SDS011;40536;53.194;5.728;2023-07-31T08:23:15;189.27;;;180.10;;
54641;SDS011;40536;53.194;5.728;2023-07-31T08:25:41;133.95;;;127.43;;
54641;SDS011;40536;53.194;5.728;2023-07-31T08:28:07;108.97;;;103.55;;
54641;SDS011;40536;53.194;5.728;2023-07-31T08:30:33;89.25;;;85.40;;
54641;SDS011;40536;53.194;5.728;2023-07-31T08:32:58;98.65;;;94.13;;
54641;SDS011;40536;53.194;5.728;2023-07-31T08:35:25;92.25;;;87.90;;
54641;SDS011;40536;53.194;5.728;2023-07-31T08:37:53;80.05;;;76.35;;
54641;SDS011;40536;53.194;5.728;2023-07-31T08:40:19;79.10;;;75.55;;
54641;SDS011;40536;53.194;5.728;2023-07-31T08:42:48;98.38;;;93.97;;
54641;SDS011;40536;53.194;5.728;2023-07-31T08:45:17;114.18;;;108.70;;
54641;SDS011;40536;53.194;5.728;2023-07-31T08:47:47;123.82;;;117.85;;
54641;SDS011;40536;53.194;5.728;2023-07-31T08:50:16;91.00;;;86.95;;
54641;SDS011;40536;53.194;5.728;2023-07-31T08:52:43;95.72;;;91.60;;
54641;SDS011;40536;53.194;5.728;2023-07-31T08:55:10;80.22;;;76.57;;
54641;SDS011;40536;53.194;5.728;2023-07-31T08:57:36;77.18;;;73.60;;
54641;SDS011;40536;53.194;5.728;2023-07-31T09:00:06;71.70;;;68.45;;
54641;SDS011;40536;53.194;5.728;2023-07-31T09:02:34;124.55;;;118.45;;
54641;SDS011;40536;53.194;5.728;2023-07-31T09:05:13;116.35;;;111.20;;
54641;SDS011;40536;53.194;5.728;2023-07-31T09:07:40;156.73;;;149.85;;
54641;SDS011;40536;53.194;5.728;2023-07-31T09:10:11;122.15;;;116.53;;
54641;SDS011;40536;53.194;5.728;2023-07-31T09:12:37;120.40;;;115.03;;
54641;SDS011;40536;53.194;5.728;2023-07-31T09:15:04;93.97;;;89.85;;
54641;SDS011;40536;53.194;5.728;2023-07-31T09:17:30;72.05;;;68.80;;
54641;SDS011;40536;53.194;5.728;2023-07-31T09:20:14;63.53;;;60.67;;
54641;SDS011;40536;53.194;5.728;2023-07-31T09:22:44;71.40;;;68.38;;
54641;SDS011;40536;53.194;5.728;2023-07-31T09:25:43;94.40;;;90.40;;
54641;SDS011;40536;53.194;5.728;2023-07-31T09:28:04;87.25;;;83.40;;
54641;SDS011;40536;53.194;5.728;2023-07-31T09:30:50;113.35;;;108.30;;
54641;SDS011;40536;53.194;5.728;2023-07-31T09:33:17;219.40;;;208.88;;
54641;SDS011;40536;53.194;5.728;2023-07-31T09:35:44;288.00;;;274.75;;
54641;SDS011;40536;53.194;5.728;2023-07-31T09:38:11;259.40;;;247.35;;
54641;SDS011;40536;53.194;5.728;2023-07-31T09:40:40;297.65;;;282.95;;
54641;SDS011;40536;53.194;5.728;2023-07-31T09:43:07;200.10;;;190.95;;
54641;SDS011;40536;53.194;5.728;2023-07-31T09:45:36;186.95;;;177.60;;
54641;SDS011;40536;53.194;5.728;2023-07-31T09:48:03;119.00;;;113.80;;
54641;SDS011;40536;53.194;5.728;2023-07-31T09:50:34;114.07;;;108.95;;
54641;SDS011;40536;53.194;5.728;2023-07-31T09:53:02;259.08;;;244.75;;
54641;SDS011;40536;53.194;5.728;2023-07-31T09:55:27;197.88;;;188.20;;
54641;SDS011;40536;53.194;5.728;2023-07-31T09:57:56;138.32;;;132.02;;
54641;SDS011;40536;53.194;5.728;2023-07-31T10:00:23;98.22;;;93.45;;
54641;SDS011;40536;53.194;5.728;2023-07-31T10:02:52;118.22;;;112.65;;
54641;SDS011;40536;53.194;5.728;2023-07-31T10:05:18;102.40;;;97.50;;
54641;SDS011;40536;53.194;5.728;2023-07-31T10:07:54;101.53;;;96.93;;
54641;SDS011;40536;53.194;5.728;2023-07-31T10:10:23;93.22;;;89.03;;
54641;SDS011;40536;53.194;5.728;2023-07-31T10:12:51;95.68;;;91.43;;
54641;SDS011;40536;53.194;5.728;2023-07-31T10:15:18;157.98;;;150.63;;
54641;SDS011;40536;53.194;5.728;2023-07-31T10:17:46;123.05;;;117.38;;
54641;SDS011;40536;53.194;5.728;2023-07-31T10:20:12;114.40;;;109.32;;
54641;SDS011;40536;53.194;5.728;2023-07-31T10:22:39;123.30;;;117.93;;
54641;SDS011;40536;53.194;5.728;2023-07-31T10:25:05;118.60;;;113.40;;
54641;SDS011;40536;53.194;5.728;2023-07-31T10:27:34;119.05;;;113.95;;
54641;SDS011;40536;53.194;5.728;2023-07-31T10:30:01;107.22;;;102.55;;
54641;SDS011;40536;53.194;5.728;2023-07-31T10:32:28;98.85;;;94.30;;
54641;SDS011;40536;53.194;5.728;2023-07-31T10:34:55;113.45;;;108.50;;
54641;SDS011;40536;53.194;5.728;2023-07-31T10:37:25;102.32;;;97.60;;
54641;SDS011;40536;53.194;5.728;2023-07-31T10:40:09;108.60;;;103.78;;
54641;SDS011;40536;53.194;5.728;2023-07-31T10:42:46;98.20;;;93.75;;
54641;SDS011;40536;53.194;5.728;2023-07-31T10:45:14;61.92;;;59.13;;
54641;SDS011;40536;53.194;5.728;2023-07-31T10:47:59;55.15;;;52.20;;
54641;SDS011;40536;53.194;5.728;2023-07-31T10:50:30;70.22;;;66.95;;
54641;SDS011;40536;53.194;5.728;2023-07-31T10:53:00;61.88;;;58.72;;
54641;SDS011;40536;53.194;5.728;2023-07-31T10:55:41;69.97;;;66.63;;
54641;SDS011;40536;53.194;5.728;2023-07-31T10:58:12;55.20;;;52.33;;
54641;SDS011;40536;53.194;5.728;2023-07-31T11:00:39;62.65;;;59.40;;
54641;SDS011;40536;53.194;5.728;2023-07-31T11:03:07;65.40;;;61.97;;
54641;SDS011;40536;53.194;5.728;2023-07-31T11:05:50;58.38;;;55.25;;
54641;SDS011;40536;53.194;5.728;2023-07-31T11:08:19;62.92;;;59.75;;
54641;SDS011;40536;53.194;5.728;2023-07-31T11:10:49;113.10;;;107.78;;
54641;SDS011;40536;53.194;5.728;2023-07-31T11:13:16;165.00;;;157.52;;
54641;SDS011;40536;53.194;5.728;2023-07-31T11:15:42;195.68;;;186.27;;
54641;SDS011;40536;53.194;5.728;2023-07-31T11:18:08;190.40;;;180.05;;
54641;SDS011;40536;53.194;5.728;2023-07-31T11:20:36;161.23;;;154.02;;
54641;SDS011;40536;53.194;5.728;2023-07-31T11:23:03;145.80;;;139.25;;
54641;SDS011;40536;53.194;5.728;2023-07-31T11:25:33;97.65;;;93.10;;
54641;SDS011;40536;53.194;5.728;2023-07-31T11:28:06;127.05;;;121.20;;
54641;SDS011;40536;53.194;5.728;2023-07-31T11:30:36;151.27;;;144.60;;
54641;SDS011;40536;53.194;5.728;2023-07-31T11:33:03;235.70;;;224.07;;
54641;SDS011;40536;53.194;5.728;2023-07-31T11:35:31;165.80;;;158.15;;
54641;SDS011;40536;53.194;5.728;2023-07-31T11:37:57;121.07;;;115.78;;
54641;SDS011;40536;53.194;5.728;2023-07-31T11:40:23;128.15;;;122.25;;
54641;SDS011;40536;53.194;5.728;2023-07-31T11:42:54;95.57;;;91.25;;
54641;SDS011;40536;53.194;5.728;2023-07-31T11:45:26;93.03;;;88.82;;
54641;SDS011;40536;53.194;5.728;2023-07-31T11:47:56;87.60;;;83.45;;
54641;SDS011;40536;53.194;5.728;2023-07-31T11:50:22;83.28;;;79.25;;
54641;SDS011;40536;53.194;5.728;2023-07-31T11:52:51;92.53;;;88.07;;
54641;SDS011;40536;53.194;5.728;2023-07-31T11:55:20;80.25;;;76.05;;
54641;SDS011;40536;53.194;5.728;2023-07-31T11:57:46;100.47;;;95.63;;
54641;SDS011;40536;53.194;5.728;2023-07-31T12:00:12;101.00;;;96.13;;
54641;SDS011;40536;53.194;5.728;2023-07-31T12:02:39;101.93;;;96.72;;
54641;SDS011;40536;53.194;5.728;2023-07-31T12:05:06;77.15;;;73.55;;
54641;SDS011;40536;53.194;5.728;2023-07-31T12:10:26;117.68;;;111.95;;
54641;SDS011;40536;53.194;5.728;2023-07-31T12:13:07;88.75;;;83.47;;
54641;SDS011;40536;53.194;5.728;2023-07-31T12:15:41;94.88;;;89.82;;
54641;SDS011;40536;53.194;5.728;2023-07-31T12:18:14;127.97;;;121.55;;
54641;SDS011;40536;53.194;5.728;2023-07-31T12:20:44;123.53;;;117.30;;
54641;SDS011;40536;53.194;5.728;2023-07-31T12:23:18;137.55;;;130.70;;
54641;SDS011;40536;53.194;5.728;2023-07-31T12:26:08;105.30;;;99.85;;
54641;SDS011;40536;53.194;5.728;2023-07-31T12:28:35;125.72;;;119.50;;
54641;SDS011;40536;53.194;5.728;2023-07-31T12:31:05;127.38;;;120.95;;
54641;SDS011;40536;53.194;5.728;2023-07-31T12:33:32;136.48;;;129.13;;
54641;SDS011;40536;53.194;5.728;2023-07-31T12:36:02;124.63;;;118.45;;
54641;SDS011;40536;53.194;5.728;2023-07-31T12:38:29;125.50;;;118.85;;
54641;SDS011;40536;53.194;5.728;2023-07-31T12:40:55;93.28;;;88.30;;
54641;SDS011;40536;53.194;5.728;2023-07-31T12:43:20;97.15;;;92.32;;
54641;SDS011;40536;53.194;5.728;2023-07-31T12:45:46;103.97;;;98.68;;
54641;SDS011;40536;53.194;5.728;2023-07-31T12:48:12;152.70;;;144.68;;
54641;SDS011;40536;53.194;5.728;2023-07-31T12:50:38;110.13;;;104.72;;
54641;SDS011;40536;53.194;5.728;2023-07-31T12:53:04;105.32;;;99.97;;
54641;SDS011;40536;53.194;5.728;2023-07-31T12:55:30;124.45;;;118.35;;
54641;SDS011;40536;53.194;5.728;2023-07-31T12:57:57;104.80;;;99.82;;
54641;SDS011;40536;53.194;5.728;2023-07-31T13:00:24;125.63;;;119.68;;
54641;SDS011;40536;53.194;5.728;2023-07-31T13:02:51;102.43;;;96.85;;
54641;SDS011;40536;53.194;5.728;2023-07-31T13:05:17;143.35;;;135.88;;
54641;SDS011;40536;53.194;5.728;2023-07-31T13:07:44;144.68;;;137.48;;
54641;SDS011;40536;53.194;5.728;2023-07-31T13:10:10;122.85;;;116.68;;
54641;SDS011;40536;53.194;5.728;2023-07-31T13:12:36;110.45;;;104.57;;
54641;SDS011;40536;53.194;5.728;2023-07-31T13:15:01;132.25;;;125.80;;
54641;SDS011;40536;53.194;5.728;2023-07-31T13:17:27;116.78;;;111.13;;
54641;SDS011;40536;53.194;5.728;2023-07-31T13:19:53;119.35;;;113.32;;
54641;SDS011;40536;53.194;5.728;2023-07-31T13:22:19;108.80;;;103.43;;
54641;SDS011;40536;53.194;5.728;2023-07-31T13:24:44;84.25;;;79.93;;
54641;SDS011;40536;53.194;5.728;2023-07-31T13:27:10;92.20;;;87.28;;
54641;SDS011;40536;53.194;5.728;2023-07-31T13:29:36;104.47;;;99.10;;
54641;SDS011;40536;53.194;5.728;2023-07-31T13:32:01;80.90;;;76.97;;
54641;SDS011;40536;53.194;5.728;2023-07-31T13:34:27;88.30;;;83.85;;
54641;SDS011;40536;53.194;5.728;2023-07-31T13:36:53;94.13;;;89.50;;
54641;SDS011;40536;53.194;5.728;2023-07-31T13:39:20;86.15;;;81.80;;
54641;SDS011;40536;53.194;5.728;2023-07-31T13:41:46;93.78;;;88.85;;
54641;SDS011;40536;53.194;5.728;2023-07-31T13:44:12;77.18;;;73.22;;
54641;SDS011;40536;53.194;5.728;2023-07-31T13:46:37;86.68;;;82.38;;
54641;SDS011;40536;53.194;5.728;2023-07-31T13:49:03;86.53;;;82.05;;
54641;SDS011;40536;53.194;5.728;2023-07-31T13:51:29;95.55;;;90.70;;
54641;SDS011;40536;53.194;5.728;2023-07-31T13:53:54;131.43;;;123.75;;
54641;SDS011;40536;53.194;5.728;2023-07-31T13:56:20;90.40;;;85.13;;
54641;SDS011;40536;53.194;5.728;2023-07-31T13:58:45;90.05;;;85.40;;
54641;SDS011;40536;53.194;5.728;2023-07-31T14:01:11;92.30;;;87.80;;
54641;SDS011;40536;53.194;5.728;2023-07-31T14:03:37;96.80;;;91.90;;
54641;SDS011;40536;53.194;5.728;2023-07-31T14:06:02;92.38;;;87.63;;
54641;SDS011;40536;53.194;5.728;2023-07-31T14:08:29;97.28;;;92.30;;
54641;SDS011;40536;53.194;5.728;2023-07-31T14:10:55;92.22;;;87.53;;
54641;SDS011;40536;53.194;5.728;2023-07-31T14:13:21;96.00;;;91.05;;